Time;durP1;ratioP1;P1;durP2;ratioP2;P2;SDS_P1;SDS_P2;PMS_P1;PMS_P2;Temp;Humidity;BMP_temperature;BMP_pressure;BME280_temperature;BME280_humidity;BME280_pressure;Samples;Min_cycle;Max_cycle;Signal;HPM_P1;HPM_P2
2024/01/31 00:00:50;;;;;;;31.42;28.40;;;;;;;-2.77;66.29;96639.22;5099228;28;20212;-71
2024/01/31 00:03:17;;;;;;;31.13;28.02;;;;;;;-2.81;65.82;96637.22;5099155;28;20246;-71
2024/01/31 00:05:44;;;;;;;32.10;28.90;;;;;;;-2.86;66.14;96637.09;5098725;28;20233;-71
2024/01/31 00:08:11;;;;;;;31.70;28.40;;;;;;;-2.97;65.98;96647.59;5099519;28;20226;-71
2024/01/31 00:10:40;;;;;;;32.17;28.88;;;;;;;-3.03;66.23;96651.22;5116241;28;20176;-70
2024/01/31 00:13:07;;;;;;;30.88;27.77;;;;;;;-3.04;66.68;96646.06;5116213;28;20221;-70
2024/01/31 00:15:34;;;;;;;30.02;26.85;;;;;;;-3.04;66.55;96643.34;5098537;28;20235;-70
2024/01/31 00:18:01;;;;;;;28.27;25.25;;;;;;;-3.06;66.43;96656.25;5098466;28;20244;-70
2024/01/31 00:20:30;;;;;;;29.45;26.55;;;;;;;-3.05;66.39;96645.25;5098560;28;20219;-71
2024/01/31 00:22:56;;;;;;;26.50;23.92;;;;;;;-3.02;66.26;96642.06;5116439;28;20215;-71
2024/01/31 00:25:24;;;;;;;27.95;25.35;;;;;;;-3.04;65.72;96643.34;5115978;28;20184;-71
2024/01/31 00:27:52;;;;;;;25.77;23.15;;;;;;;-2.97;66.22;96638.69;5116264;28;20253;-71
2024/01/31 00:30:20;;;;;;;26.88;24.27;;;;;;;-2.92;65.53;96646.91;5111662;28;20240;-71
2024/01/31 00:32:46;;;;;;;25.02;22.80;;;;;;;-2.90;65.36;96636.72;5095120;28;20603;-71
2024/01/31 00:35:13;;;;;;;28.23;25.30;;;;;;;-2.95;65.77;96634.69;5095811;28;20204;-71
2024/01/31 00:37:40;;;;;;;27.50;24.73;;;;;;;-3.00;65.68;96636.44;5095324;28;20200;-71
2024/01/31 00:40:09;;;;;;;26.92;24.25;;;;;;;-3.04;65.87;96636.06;5094719;28;20209;-70
2024/01/31 00:42:37;;;;;;;27.10;24.45;;;;;;;-3.08;66.70;96629.50;5094750;28;20200;-70
2024/01/31 00:45:07;;;;;;;25.42;22.92;;;;;;;-3.06;66.39;96627.38;5096163;28;20199;-70
2024/01/31 00:47:34;;;;;;;26.33;23.83;;;;;;;-3.07;66.07;96622.22;5094499;28;20568;-70
2024/01/31 00:50:01;;;;;;;27.55;24.95;;;;;;;-3.17;66.19;96618.16;5095827;28;20189;-70
2024/01/31 00:52:28;;;;;;;27.20;24.50;;;;;;;-3.25;66.30;96620.38;5094516;28;20196;-71
2024/01/31 00:54:55;;;;;;;27.75;25.02;;;;;;;-3.29;66.55;96625.41;5094546;28;20219;-71
2024/01/31 00:57:22;;;;;;;27.42;24.83;;;;;;;-3.33;66.92;96621.50;5095250;28;20321;-71
2024/01/31 00:59:50;;;;;;;30.25;27.33;;;;;;;-3.42;66.93;96623.69;5094195;28;20647;-71
2024/01/31 01:02:18;;;;;;;32.67;29.45;;;;;;;-3.53;66.98;96621.75;5095512;28;20184;-71
2024/01/31 01:04:45;;;;;;;36.70;33.20;;;;;;;-3.55;67.02;96628.44;5095734;28;20216;-71
2024/01/31 01:07:12;;;;;;;45.38;40.75;;;;;;;-3.62;67.03;96628.50;5095120;28;20287;-71
2024/01/31 01:09:39;;;;;;;44.90;40.25;;;;;;;-3.72;66.74;96630.91;5094533;28;20290;-71
2024/01/31 01:12:07;;;;;;;42.53;38.15;;;;;;;-3.69;67.81;96627.75;5094693;28;20231;-70
2024/01/31 01:14:34;;;;;;;39.95;35.92;;;;;;;-3.61;67.77;96627.47;5096756;28;20211;-71
2024/01/31 01:17:02;;;;;;;37.58;33.88;;;;;;;-3.50;67.32;96618.59;5099086;28;20196;-70
2024/01/31 01:19:30;;;;;;;39.70;35.60;;;;;;;-3.43;66.75;96627.44;5098263;28;20669;-70
2024/01/31 01:21:57;;;;;;;34.53;31.13;;;;;;;-3.40;66.52;96615.38;5099324;28;20197;-70
2024/01/31 01:24:25;;;;;;;35.15;31.75;;;;;;;-3.34;66.61;96617.19;5099238;28;20546;-70
2024/01/31 01:26:52;;;;;;;35.47;32.00;;;;;;;-3.28;66.71;96621.66;5098975;28;20596;-70
2024/01/31 01:29:38;;;;;;;38.50;34.75;;;;;;;-3.27;66.39;96619.75;5101390;28;20247;-70
2024/01/31 01:32:05;;;;;;;39.63;35.80;;;;;;;-3.28;66.69;96623.53;5102055;28;20191;-70
2024/01/31 01:34:34;;;;;;;39.40;35.60;;;;;;;-3.26;67.00;96616.84;5101967;28;20595;-70
2024/01/31 01:37:01;;;;;;;38.83;35.03;;;;;;;-3.23;66.92;96615.56;5101889;28;20196;-70
2024/01/31 01:39:28;;;;;;;38.92;35.00;;;;;;;-3.20;66.52;96615.09;5084469;28;20258;-70
2024/01/31 01:41:56;;;;;;;38.42;34.72;;;;;;;-3.14;67.48;96614.19;5102460;28;20188;-70
2024/01/31 01:44:23;;;;;;;35.95;32.25;;;;;;;-3.12;67.28;96612.09;5101632;28;20528;-71
2024/01/31 01:46:51;;;;;;;39.97;36.00;;;;;;;-3.15;66.71;96607.16;5118204;28;20692;-71
2024/01/31 01:49:19;;;;;;;41.20;37.03;;;;;;;-3.21;67.05;96608.88;5102443;28;20236;-73
2024/01/31 01:51:48;;;;;;;42.22;37.95;;;;;;;-3.24;67.03;96611.22;5101827;28;20195;-72
2024/01/31 01:54:15;;;;;;;39.55;35.65;;;;;;;-3.28;67.27;96610.84;5102196;28;20195;-71
2024/01/31 01:56:43;;;;;;;42.22;37.90;;;;;;;-3.34;67.36;96601.00;5118967;28;20195;-72
2024/01/31 01:59:10;;;;;;;40.83;36.80;;;;;;;-3.36;67.27;96602.25;5101335;28;20602;-71
2024/01/31 02:01:37;;;;;;;40.92;36.83;;;;;;;-3.37;67.58;96608.72;5118874;28;20604;-71
2024/01/31 02:04:05;;;;;;;38.50;34.72;;;;;;;-3.35;67.01;96612.81;5101344;28;20195;-71
2024/01/31 02:06:32;;;;;;;37.65;33.95;;;;;;;-3.34;67.23;96603.69;5117839;28;20207;-70
2024/01/31 02:09:01;;;;;;;38.97;35.13;;;;;;;-3.37;67.09;96598.75;5118392;28;20253;-71
2024/01/31 02:11:29;;;;;;;37.88;34.20;;;;;;;-3.42;66.74;96595.88;5101472;28;20200;-71
2024/01/31 02:13:56;;;;;;;36.13;32.65;;;;;;;-3.44;67.08;96592.59;5118849;28;20187;-71
2024/01/31 02:16:23;;;;;;;36.03;32.38;;;;;;;-3.50;66.58;96594.31;5118463;28;20197;-71
2024/01/31 02:18:50;;;;;;;36.70;32.55;;;;;;;-3.51;66.69;96589.16;5118639;28;20241;-71
2024/01/31 02:21:17;;;;;;;36.05;32.55;;;;;;;-3.47;67.26;96587.66;5118869;28;20235;-71
2024/01/31 02:23:46;;;;;;;36.63;33.10;;;;;;;-3.52;66.95;96582.09;5118906;28;20192;-71
2024/01/31 02:26:13;;;;;;;36.88;33.33;;;;;;;-3.60;67.39;96579.72;5100353;28;20188;-71
2024/01/31 02:28:40;;;;;;;36.53;33.03;;;;;;;-3.69;66.90;96574.66;5118222;28;20192;-70
2024/01/31 02:31:07;;;;;;;35.78;32.22;;;;;;;-3.74;67.26;96577.22;5096684;28;20335;-71
2024/01/31 02:33:34;;;;;;;33.67;30.42;;;;;;;-3.81;67.44;96575.63;5097085;28;20250;-70
2024/01/31 02:36:22;;;;;;;33.20;29.90;;;;;;;-3.78;67.71;96573.28;5080366;28;20222;-71
2024/01/31 02:38:51;;;;;;;31.15;28.15;;;;;;;-3.73;67.80;96578.03;5097510;28;20196;-71
2024/01/31 02:41:18;;;;;;;32.45;29.38;;;;;;;-3.73;67.78;96580.72;5098098;28;20212;-71
2024/01/31 02:43:45;;;;;;;33.20;30.15;;;;;;;-3.81;66.88;96575.63;5097520;28;20180;-71
2024/01/31 02:46:12;;;;;;;33.83;30.52;;;;;;;-3.85;67.28;96574.44;5097088;28;20181;-71
2024/01/31 02:48:39;;;;;;;34.65;31.15;;;;;;;-3.86;67.25;96576.31;5097489;28;20220;-71
2024/01/31 02:51:06;;;;;;;31.60;28.50;;;;;;;-3.86;67.17;96573.59;5096451;28;20253;-71
2024/01/31 02:53:33;;;;;;;30.98;27.98;;;;;;;-3.91;67.58;96576.16;5097484;28;20181;-71
2024/01/31 02:56:01;;;;;;;31.17;28.33;;;;;;;-3.88;67.43;96581.13;5097877;28;20254;-70
2024/01/31 02:58:28;;;;;;;30.77;27.70;;;;;;;-3.87;67.72;96571.97;5097637;28;20189;-71
2024/01/31 03:00:56;;;;;;;29.55;26.80;;;;;;;-3.81;67.25;96572.91;5096553;28;20230;-71
2024/01/31 03:03:24;;;;;;;29.08;26.48;;;;;;;-3.78;66.99;96581.38;5096564;28;20199;-71
2024/01/31 03:05:51;;;;;;;30.52;27.55;;;;;;;-3.74;67.72;96573.66;5096761;28;20192;-71
2024/01/31 03:08:18;;;;;;;27.27;24.77;;;;;;;-3.72;66.74;96577.78;5097354;28;20269;-71
2024/01/31 03:10:45;;;;;;;27.77;25.17;;;;;;;-3.75;67.09;96575.53;5096954;28;20570;-71
2024/01/31 03:13:14;;;;;;;28.38;25.73;;;;;;;-3.79;67.18;96566.25;5096359;28;20204;-71
2024/01/31 03:15:41;;;;;;;29.58;26.83;;;;;;;-3.87;67.29;96571.97;5097289;28;20200;-71
2024/01/31 03:18:08;;;;;;;29.25;26.42;;;;;;;-3.85;67.32;96571.72;5096153;28;20196;-71
2024/01/31 03:20:35;;;;;;;28.67;25.92;;;;;;;-3.86;67.01;96568.22;5096706;28;20242;-71
2024/01/31 03:23:02;;;;;;;25.88;23.42;;;;;;;-3.87;67.36;96561.19;5096082;28;20196;-71
2024/01/31 03:25:29;;;;;;;26.48;23.95;;;;;;;-3.86;67.57;96568.22;5095867;28;20303;-71
2024/01/31 03:27:56;;;;;;;27.15;24.60;;;;;;;-3.84;67.68;96570.69;5097286;28;20181;-71
2024/01/31 03:30:26;;;;;;;28.13;25.58;;;;;;;-3.87;67.03;96561.19;5108745;28;20227;-71
2024/01/31 03:32:53;;;;;;;27.25;24.63;;;;;;;-3.91;67.08;96560.00;5099892;28;20188;-71
2024/01/31 03:35:20;;;;;;;29.95;27.15;;;;;;;-3.92;67.30;96553.78;5099812;28;20192;-71
2024/01/31 03:37:47;;;;;;;34.75;31.05;;;;;;;-3.96;67.13;96555.28;5116669;28;20220;-71
2024/01/31 03:40:14;;;;;;;31.23;28.23;;;;;;;-3.93;67.35;96564.78;5116739;28;20299;-70
2024/01/31 03:42:41;;;;;;;28.00;25.40;;;;;;;-3.92;67.13;96555.66;5099947;28;20195;-70
2024/01/31 03:45:09;;;;;;;27.77;24.98;;;;;;;-3.88;67.27;96556.84;5116817;28;20184;-70
2024/01/31 03:47:37;;;;;;;27.35;24.83;;;;;;;-3.87;67.43;96559.31;5099899;28;20195;-70
2024/01/31 03:50:05;;;;;;;29.33;26.42;;;;;;;-3.88;67.32;96565.75;5099211;28;20580;-71
2024/01/31 03:52:32;;;;;;;29.58;26.67;;;;;;;-3.90;67.10;96564.31;5116794;28;20187;-71
2024/01/31 03:54:59;;;;;;;28.85;26.05;;;;;;;-3.90;66.68;96573.22;5098680;28;20641;-72
2024/01/31 03:57:26;;;;;;;28.52;25.63;;;;;;;-3.87;67.17;96569.28;5116793;28;20200;-73
2024/01/31 03:59:54;;;;;;;26.90;24.20;;;;;;;-3.88;67.01;96578.41;5117161;28;20680;-73
2024/01/31 04:02:23;;;;;;;26.05;23.70;;;;;;;-3.88;66.85;96578.41;5117007;28;20180;-73
2024/01/31 04:04:51;;;;;;;26.73;24.13;;;;;;;-3.88;66.87;96576.53;5116495;28;20249;-72
2024/01/31 04:07:18;;;;;;;25.15;22.70;;;;;;;-3.86;66.83;96579.00;5116714;28;20192;-72
2024/01/31 04:09:45;;;;;;;24.75;22.55;;;;;;;-3.83;66.36;96586.63;5099727;28;20196;-72
2024/01/31 04:12:12;;;;;;;24.40;22.20;;;;;;;-3.85;66.00;96575.25;5116960;28;20202;-72
2024/01/31 04:14:39;;;;;;;22.98;20.88;;;;;;;-3.82;66.36;96576.69;5115311;28;20615;-72
2024/01/31 04:17:06;;;;;;;24.10;21.80;;;;;;;-3.82;66.63;96585.59;5116739;28;20268;-72
2024/01/31 04:19:33;;;;;;;27.42;24.83;;;;;;;-3.88;66.28;96579.25;5099207;28;20219;-72
2024/01/31 04:22:02;;;;;;;26.92;24.35;;;;;;;-4.03;66.24;96586.88;5116455;28;20209;-72
2024/01/31 04:24:29;;;;;;;27.17;24.48;;;;;;;-4.16;66.22;96587.00;5115528;28;20573;-72
2024/01/31 04:26:56;;;;;;;27.30;24.60;;;;;;;-4.24;66.77;96588.13;5116607;28;20184;-72
2024/01/31 04:29:23;;;;;;;28.00;25.30;;;;;;;-4.28;67.49;96591.50;5111667;28;20257;-72
2024/01/31 04:31:52;;;;;;;27.38;24.73;;;;;;;-4.31;66.92;96589.22;5096083;28;20188;-72
2024/01/31 04:34:21;;;;;;;27.13;24.63;;;;;;;-4.33;67.30;96585.94;5095821;28;20235;-71
2024/01/31 04:36:48;;;;;;;24.85;22.50;;;;;;;-4.35;67.16;96583.47;5095125;28;20188;-71
2024/01/31 04:39:16;;;;;;;26.15;23.75;;;;;;;-4.38;67.65;96584.72;5095618;28;20246;-71
2024/01/31 04:41:43;;;;;;;27.05;24.67;;;;;;;-4.46;67.27;96590.41;5094757;28;20600;-71
2024/01/31 04:44:10;;;;;;;28.55;25.70;;;;;;;-4.56;67.75;96591.94;5095616;28;20192;-71
2024/01/31 04:46:37;;;;;;;26.40;23.90;;;;;;;-4.64;67.42;96588.47;5094486;28;20200;-72
2024/01/31 04:49:04;;;;;;;26.02;23.55;;;;;;;-4.68;67.01;96592.66;5111500;28;20257;-72
2024/01/31 04:51:31;;;;;;;25.05;22.65;;;;;;;-4.68;67.65;96589.97;5094942;28;20189;-72
2024/01/31 04:53:58;;;;;;;25.30;22.95;;;;;;;-4.65;67.93;96584.16;5095418;28;20584;-72
2024/01/31 04:56:27;;;;;;;26.58;24.08;;;;;;;-4.60;67.45;96594.25;5095175;28;20197;-72
2024/01/31 04:58:54;;;;;;;26.48;24.02;;;;;;;-4.64;67.55;96587.66;5111903;28;20223;-72
2024/01/31 05:01:20;;;;;;;28.85;25.95;;;;;;;-4.63;68.25;96576.66;5094485;28;20220;-72
2024/01/31 05:03:47;;;;;;;27.80;25.30;;;;;;;-4.58;67.50;96573.28;5095774;28;20188;-72
2024/01/31 05:06:15;;;;;;;28.38;25.70;;;;;;;-4.54;67.77;96571.81;5094222;28;20698;-73
2024/01/31 05:08:42;;;;;;;29.50;26.70;;;;;;;-4.56;67.55;96573.91;5095416;28;20180;-73
2024/01/31 05:11:09;;;;;;;28.08;25.52;;;;;;;-4.50;68.29;96580.28;5094273;28;20200;-72
2024/01/31 05:13:38;;;;;;;28.10;25.50;;;;;;;-4.46;68.40;96584.19;5093950;28;20257;-75
2024/01/31 05:16:08;;;;;;;27.67;25.17;;;;;;;-4.48;67.63;96575.50;5094819;28;20636;-75
2024/01/31 05:18:36;;;;;;;26.88;24.58;;;;;;;-4.45;67.68;96581.28;5094642;28;20224;-76
2024/01/31 05:21:04;;;;;;;24.98;22.50;;;;;;;-4.39;67.55;96588.47;5095215;28;20226;-77
2024/01/31 05:23:31;;;;;;;27.45;24.67;;;;;;;-4.41;67.86;96582.47;5095018;28;20215;-76
2024/01/31 05:25:58;;;;;;;29.08;26.20;;;;;;;-4.34;67.98;96593.19;5094091;28;20525;-76
2024/01/31 05:28:25;;;;;;;28.45;25.48;;;;;;;-4.31;68.29;96590.06;5095085;28;20192;-75
2024/01/31 05:30:53;;;;;;;32.78;29.67;;;;;;;-4.26;68.31;96595.59;5095045;28;20293;-75
2024/01/31 05:33:20;;;;;;;31.08;28.17;;;;;;;-4.20;67.47;96593.88;5094891;28;20204;-75
2024/01/31 05:35:47;;;;;;;27.15;24.55;;;;;;;-4.21;67.44;96594.91;5094650;28;20204;-75
2024/01/31 05:38:14;;;;;;;24.65;22.45;;;;;;;-4.22;67.89;96594.09;5094216;28;20201;-75
2024/01/31 05:40:42;;;;;;;22.60;20.42;;;;;;;-4.21;67.64;96603.84;5095146;28;20205;-76
2024/01/31 05:43:09;;;;;;;22.10;20.08;;;;;;;-4.20;68.22;96610.06;5094356;28;20299;-76
2024/01/31 05:45:37;;;;;;;22.90;20.70;;;;;;;-4.21;67.15;96611.06;5094639;28;20200;-75
2024/01/31 05:48:06;;;;;;;22.08;19.98;;;;;;;-4.21;66.86;96616.47;5111320;28;20282;-74
2024/01/31 05:50:33;;;;;;;21.38;19.38;;;;;;;-4.26;66.97;96614.44;5111457;28;20208;-73
2024/01/31 05:53:00;;;;;;;21.40;19.40;;;;;;;-4.26;66.67;96616.31;5094746;28;20196;-72
2024/01/31 05:55:27;;;;;;;20.73;18.85;;;;;;;-4.25;66.63;96621.50;5095242;28;20202;-73
2024/01/31 05:57:54;;;;;;;20.80;18.90;;;;;;;-4.24;67.22;96622.31;5094819;28;20221;-73
2024/01/31 06:00:21;;;;;;;19.52;17.73;;;;;;;-4.21;67.03;96616.47;5095991;28;20205;-73
2024/01/31 06:02:48;;;;;;;18.33;16.27;;;;;;;-4.18;66.75;96621.41;5098022;28;20220;-74
2024/01/31 06:05:17;;;;;;;17.52;15.82;;;;;;;-4.17;66.61;96618.53;5098094;28;20254;-73
2024/01/31 06:07:45;;;;;;;18.42;16.63;;;;;;;-4.22;66.11;96620.22;5098182;28;20229;-73
2024/01/31 06:10:12;;;;;;;17.92;16.30;;;;;;;-4.26;65.75;96625.22;5098378;28;20195;-73
2024/01/31 06:12:39;;;;;;;18.63;16.88;;;;;;;-4.29;65.79;96622.97;5098026;28;20242;-73
2024/01/31 06:15:09;;;;;;;19.42;17.73;;;;;;;-4.27;66.30;96614.69;5097730;28;20192;-73
2024/01/31 06:17:37;;;;;;;19.83;17.98;;;;;;;-4.26;66.27;96613.63;5098494;28;20176;-73
2024/01/31 06:20:07;;;;;;;19.30;17.55;;;;;;;-4.26;66.27;96610.94;5098490;28;20203;-73
2024/01/31 06:22:36;;;;;;;20.25;18.27;;;;;;;-4.30;66.23;96612.44;5114777;28;20224;-74
2024/01/31 06:25:04;;;;;;;23.30;21.00;;;;;;;-4.32;65.78;96614.50;5098446;28;20209;-74
2024/01/31 06:27:31;;;;;;;23.15;21.02;;;;;;;-4.34;66.25;96613.91;5098321;28;20200;-74
2024/01/31 06:29:59;;;;;;;23.48;21.42;;;;;;;-4.44;66.29;96623.31;5097480;28;20297;-74
2024/01/31 06:32:31;;;;;;;23.38;21.02;;;;;;;-4.48;66.83;96618.59;5098269;28;20176;-74
2024/01/31 06:34:58;;;;;;;24.33;22.05;;;;;;;-4.45;66.31;96623.53;5097237;28;20203;-74
2024/01/31 06:37:26;;;;;;;24.73;22.30;;;;;;;-4.41;66.97;96614.78;5098009;28;20184;-74
2024/01/31 06:39:55;;;;;;;28.98;26.48;;;;;;;-4.37;66.40;96618.69;5097782;28;20196;-73
2024/01/31 06:42:22;;;;;;;26.30;23.98;;;;;;;-4.38;66.68;96629.69;5097590;28;20215;-73
2024/01/31 06:44:49;;;;;;;24.48;22.08;;;;;;;-4.37;66.99;96621.38;5098560;28;20234;-73
2024/01/31 06:47:16;;;;;;;23.45;21.17;;;;;;;-4.36;66.90;96628.44;5097559;28;20232;-73
2024/01/31 06:49:43;;;;;;;22.13;20.20;;;;;;;-4.36;66.49;96631.13;5096667;28;20321;-73
2024/01/31 06:52:11;;;;;;;22.52;20.52;;;;;;;-4.29;67.62;96631.06;5097419;28;20203;-73
2024/01/31 06:54:38;;;;;;;22.90;20.70;;;;;;;-4.20;67.35;96624.34;5097107;28;20215;-73
2024/01/31 06:57:07;;;;;;;22.02;20.02;;;;;;;-4.11;67.27;96624.88;5097558;28;20184;-73
2024/01/31 06:59:34;;;;;;;22.77;20.67;;;;;;;-4.05;66.84;96620.47;5097243;28;20185;-73
2024/01/31 07:02:01;;;;;;;21.45;19.55;;;;;;;-3.98;66.78;96615.84;5096203;28;20228;-73
2024/01/31 07:04:28;;;;;;;22.17;20.17;;;;;;;-3.90;66.64;96616.38;5096995;28;20197;-73
2024/01/31 07:06:55;;;;;;;22.45;20.35;;;;;;;-3.81;66.59;96613.38;5096090;28;20208;-74
2024/01/31 07:09:23;;;;;;;21.25;19.33;;;;;;;-3.71;66.88;96603.69;5096178;28;20188;-74
2024/01/31 07:11:50;;;;;;;21.23;19.30;;;;;;;-3.56;66.85;96606.00;5095819;28;20214;-74
2024/01/31 07:14:19;;;;;;;21.02;19.10;;;;;;;-3.44;66.79;96612.31;5096688;28;20196;-74
2024/01/31 07:16:47;;;;;;;20.65;18.75;;;;;;;-3.31;66.42;96613.19;5096251;28;20199;-74
2024/01/31 07:19:14;;;;;;;20.45;18.52;;;;;;;-3.22;66.53;96611.81;5095974;28;20295;-75
2024/01/31 07:21:41;;;;;;;18.73;16.92;;;;;;;-3.17;66.36;96611.94;5096384;28;20234;-75
2024/01/31 07:24:08;;;;;;;19.52;17.77;;;;;;;-3.14;66.22;96611.50;5096543;28;20192;-75
2024/01/31 07:26:36;;;;;;;19.83;18.02;;;;;;;-3.12;66.36;96605.88;5096078;28;20321;-75
2024/01/31 07:29:03;;;;;;;20.88;19.08;;;;;;;-3.01;66.26;96605.94;5096607;28;20230;-75
2024/01/31 07:31:34;;;;;;;25.17;22.92;;;;;;;-2.92;66.09;96601.84;5117219;28;20188;-75
2024/01/31 07:34:02;;;;;;;24.25;21.95;;;;;;;-2.78;66.12;96604.34;5117093;28;20188;-75
2024/01/31 07:36:29;;;;;;;25.63;23.42;;;;;;;-2.69;65.89;96611.91;5117041;28;20612;-75
2024/01/31 07:38:56;;;;;;;32.33;29.35;;;;;;;-2.56;65.20;96607.31;5099418;28;20207;-75
2024/01/31 07:41:23;;;;;;;28.65;26.05;;;;;;;-2.49;65.24;96605.34;5098872;28;20258;-75
2024/01/31 07:43:50;;;;;;;28.52;25.85;;;;;;;-2.36;65.58;96593.47;5116764;28;20199;-75
2024/01/31 07:46:17;;;;;;;30.35;27.30;;;;;;;-2.29;65.21;96600.44;5098850;28;20576;-75
2024/01/31 07:48:46;;;;;;;29.95;27.35;;;;;;;-2.15;64.80;96601.00;5099481;28;20192;-75
2024/01/31 07:51:14;;;;;;;30.98;28.27;;;;;;;-2.01;64.67;96597.00;5099781;28;20195;-75
2024/01/31 07:53:43;;;;;;;30.95;28.05;;;;;;;-1.87;64.68;96597.59;5099277;28;20564;-75
2024/01/31 07:56:10;;;;;;;28.95;26.20;;;;;;;-1.78;63.64;96598.88;5116594;28;20262;-75
2024/01/31 07:58:37;;;;;;;29.70;26.83;;;;;;;-1.72;63.38;96597.91;5099141;28;20196;-75
2024/01/31 08:01:04;;;;;;;31.63;28.58;;;;;;;-1.56;63.63;96592.81;5099056;28;20200;-75
2024/01/31 08:03:34;;;;;;;40.15;36.28;;;;;;;-1.42;63.82;96591.50;5099737;28;20616;-74
2024/01/31 08:06:03;;;;;;;42.50;38.70;;;;;;;-1.33;63.26;96592.78;5099197;28;20199;-74
2024/01/31 08:08:30;;;;;;;43.78;39.75;;;;;;;-1.24;63.35;96590.50;5098990;28;20203;-74
2024/01/31 08:10:59;;;;;;;46.80;42.22;;;;;;;-1.17;63.14;96595.78;5099138;28;20206;-74
2024/01/31 08:13:26;;;;;;;44.78;40.67;;;;;;;-0.95;63.06;96588.59;5116018;28;20262;-74
2024/01/31 08:15:53;;;;;;;39.42;35.90;;;;;;;-0.82;62.33;96582.06;5098567;28;20195;-72
2024/01/31 08:18:20;;;;;;;40.10;36.25;;;;;;;-0.62;62.45;96587.00;5116069;28;20192;-73
2024/01/31 08:20:47;;;;;;;39.55;36.05;;;;;;;-0.41;61.91;96583.56;5098282;28;20702;-74
2024/01/31 08:23:15;;;;;;;39.42;35.88;;;;;;;-0.28;61.87;96596.00;5098753;28;20227;-74
2024/01/31 08:25:42;;;;;;;40.20;36.50;;;;;;;-0.16;61.11;96579.63;5098910;28;20204;-73
2024/01/31 08:28:09;;;;;;;39.83;36.35;;;;;;;-0.13;60.75;96577.25;5098705;28;20253;-74
2024/01/31 08:30:36;;;;;;;38.55;34.65;;;;;;;0.06;60.59;96579.69;5094614;28;20228;-74
2024/01/31 08:33:03;;;;;;;35.17;31.83;;;;;;;0.10;59.63;96578.13;5094911;28;20204;-74
2024/01/31 08:35:30;;;;;;;40.72;36.92;;;;;;;0.20;59.75;96575.53;5095760;28;20261;-74
2024/01/31 08:37:58;;;;;;;42.70;38.63;;;;;;;0.39;59.36;96559.78;5094859;28;20204;-74
2024/01/31 08:40:26;;;;;;;42.75;38.65;;;;;;;0.50;58.72;96566.16;5095612;28;20200;-74
2024/01/31 08:42:58;;;;;;;35.03;31.67;;;;;;;0.60;58.23;96563.56;5095384;28;20212;-74
2024/01/31 08:45:25;;;;;;;36.33;32.83;;;;;;;0.74;58.87;96564.84;5094507;28;20196;-74
2024/01/31 08:47:52;;;;;;;40.42;36.47;;;;;;;0.89;58.19;96558.75;5094692;28;20196;-74
2024/01/31 08:50:19;;;;;;;30.83;27.63;;;;;;;0.99;58.33;96558.88;5094990;28;20238;-74
2024/01/31 08:52:48;;;;;;;28.70;26.10;;;;;;;1.23;58.04;96551.19;5094507;28;20193;-74
2024/01/31 08:55:16;;;;;;;27.60;24.98;;;;;;;1.35;57.25;96542.91;5095253;28;20218;-74
2024/01/31 08:57:45;;;;;;;27.08;24.58;;;;;;;1.51;56.57;96547.38;5095479;28;20185;-74
2024/01/31 09:00:14;;;;;;;27.55;25.20;;;;;;;1.65;56.30;96537.72;5095186;28;20279;-74
2024/01/31 09:02:41;;;;;;;28.15;25.58;;;;;;;1.77;55.58;96531.25;5094788;28;20226;-74
2024/01/31 09:05:10;;;;;;;30.63;27.63;;;;;;;1.82;56.18;96523.16;5095808;28;20216;-74
2024/01/31 09:07:37;;;;;;;28.00;25.30;;;;;;;1.89;55.05;96523.75;5094774;28;20224;-74
2024/01/31 09:10:06;;;;;;;26.77;24.38;;;;;;;2.00;55.23;96525.44;5094973;28;20635;-74
2024/01/31 09:12:33;;;;;;;26.08;23.55;;;;;;;2.18;54.31;96516.03;5094711;28;20204;-74
2024/01/31 09:15:01;;;;;;;25.30;22.90;;;;;;;2.38;54.57;96518.81;5111394;28;20250;-74
2024/01/31 09:17:29;;;;;;;25.20;22.83;;;;;;;2.51;53.38;96512.09;5094096;28;20192;-74
2024/01/31 09:19:56;;;;;;;25.55;23.15;;;;;;;2.64;53.28;96511.56;5094142;28;20203;-74
2024/01/31 09:22:25;;;;;;;27.60;24.98;;;;;;;2.73;52.99;96516.53;5094699;28;20239;-74
2024/01/31 09:24:52;;;;;;;26.98;24.48;;;;;;;2.92;52.99;96514.13;5094874;28;20192;-74
2024/01/31 09:27:19;;;;;;;26.50;23.77;;;;;;;3.10;51.85;96498.06;5095309;28;20197;-74
2024/01/31 09:29:46;;;;;;;26.23;23.83;;;;;;;3.19;51.94;96492.88;5093931;28;20235;-74
2024/01/31 09:32:15;;;;;;;25.23;22.98;;;;;;;3.40;51.61;96484.72;5112019;28;20291;-74
2024/01/31 09:34:43;;;;;;;25.50;23.25;;;;;;;3.56;50.94;96489.91;5096279;28;20196;-74
2024/01/31 09:37:10;;;;;;;25.40;22.90;;;;;;;3.76;50.66;96480.88;5099187;28;20184;-74
2024/01/31 09:39:37;;;;;;;30.42;27.38;;;;;;;3.98;50.49;96483.28;5098849;28;20644;-74
2024/01/31 09:42:04;;;;;;;30.00;27.15;;;;;;;4.11;49.88;96473.72;5098732;28;20208;-74
2024/01/31 09:44:31;;;;;;;32.97;29.67;;;;;;;4.28;49.67;96470.66;5098679;28;20192;-74
2024/01/31 09:47:00;;;;;;;32.75;29.75;;;;;;;4.55;49.10;96462.91;5099035;28;20180;-74
2024/01/31 09:49:29;;;;;;;30.52;27.80;;;;;;;4.89;48.14;96464.09;5097991;28;20241;-74
2024/01/31 09:51:58;;;;;;;30.08;27.25;;;;;;;5.12;47.25;96455.19;5098726;28;20214;-74
2024/01/31 09:54:26;;;;;;;31.25;28.17;;;;;;;5.30;47.22;96451.78;5098539;28;20246;-74
2024/01/31 09:56:54;;;;;;;30.10;27.35;;;;;;;5.58;46.32;96445.78;5097823;28;20247;-74
2024/01/31 09:59:21;;;;;;;28.75;25.95;;;;;;;5.99;45.38;96443.50;5098413;28;20261;-74
2024/01/31 10:01:52;;;;;;;30.90;28.10;;;;;;;6.40;44.26;96434.84;5098388;28;20679;-74
2024/01/31 10:04:19;;;;;;;33.33;30.17;;;;;;;6.51;43.45;96433.59;5098595;28;20181;-74
2024/01/31 10:06:48;;;;;;;33.47;30.02;;;;;;;6.69;43.22;96421.84;5097356;28;20201;-74
2024/01/31 10:09:15;;;;;;;34.05;30.88;;;;;;;6.77;42.83;96431.31;5097001;28;20204;-74
2024/01/31 10:11:46;;;;;;;35.25;31.83;;;;;;;6.87;43.33;96428.44;5098204;28;20177;-75
2024/01/31 10:14:14;;;;;;;36.00;32.63;;;;;;;7.28;42.04;96424.28;5097699;28;20204;-75
2024/01/31 10:16:41;;;;;;;38.42;34.60;;;;;;;7.66;41.07;96414.00;5113806;28;20192;-75
2024/01/31 10:19:08;;;;;;;36.75;33.13;;;;;;;7.80;40.45;96412.09;5097069;28;20208;-75
2024/01/31 10:21:35;;;;;;;29.90;27.00;;;;;;;8.01;38.77;96400.75;5098053;28;20216;-75
2024/01/31 10:24:04;;;;;;;29.50;26.70;;;;;;;8.25;39.23;96395.88;5114281;28;20228;-75
2024/01/31 10:26:33;;;;;;;30.40;27.48;;;;;;;8.57;38.29;96394.13;5096870;28;20210;-75
2024/01/31 10:29:00;;;;;;;26.85;24.25;;;;;;;8.54;36.46;96387.34;5096448;28;20265;-75
2024/01/31 10:31:28;;;;;;;28.92;26.05;;;;;;;8.56;36.86;96389.75;5079977;28;20197;-74
2024/01/31 10:33:56;;;;;;;32.00;28.77;;;;;;;8.84;37.63;96374.03;5097928;28;20181;-74
2024/01/31 10:36:24;;;;;;;33.72;30.52;;;;;;;9.06;37.22;96374.06;5097318;28;20287;-74
2024/01/31 10:38:54;;;;;;;31.92;28.73;;;;;;;9.25;36.51;96359.28;5097600;28;20242;-75
2024/01/31 10:41:24;;;;;;;31.98;28.92;;;;;;;9.33;36.15;96367.63;5097374;28;20196;-75
2024/01/31 10:43:51;;;;;;;30.40;27.40;;;;;;;9.39;35.69;96352.59;5079959;28;20208;-75
2024/01/31 10:46:19;;;;;;;32.90;29.60;;;;;;;9.62;35.65;96356.16;5096198;28;20228;-75
2024/01/31 10:48:46;;;;;;;30.85;28.02;;;;;;;9.76;34.96;96339.50;5098096;28;20301;-74
2024/01/31 10:51:15;;;;;;;30.15;27.15;;;;;;;9.74;34.98;96338.22;5097493;28;20219;-74
2024/01/31 10:53:42;;;;;;;33.25;28.33;;;;;;;9.69;34.86;96341.09;5097754;28;20268;-75
2024/01/31 10:56:09;;;;;;;26.50;23.90;;;;;;;9.88;34.15;96341.69;5080509;28;20219;-75
2024/01/31 10:58:38;;;;;;;29.98;27.17;;;;;;;9.69;34.24;96336.41;5079965;28;20192;-75
2024/01/31 11:01:05;;;;;;;30.27;27.33;;;;;;;10.04;34.10;96331.84;5080752;28;20200;-75
2024/01/31 11:03:32;;;;;;;26.63;24.13;;;;;;;10.41;32.76;96318.69;5080240;28;20273;-75
2024/01/31 11:06:00;;;;;;;22.60;20.42;;;;;;;10.51;30.95;96318.38;5079717;28;20189;-75
2024/01/31 11:08:27;;;;;;;21.08;19.08;;;;;;;10.68;30.24;96311.28;5079408;28;20620;-75
2024/01/31 11:10:54;;;;;;;23.98;21.67;;;;;;;10.61;30.34;96309.00;5079922;28;20636;-75
2024/01/31 11:13:21;;;;;;;21.20;19.10;;;;;;;10.53;29.69;96310.63;5097030;28;20169;-75
2024/01/31 11:15:50;;;;;;;17.58;15.95;;;;;;;10.61;28.68;96306.25;5097127;28;20214;-75
2024/01/31 11:18:17;;;;;;;25.42;22.83;;;;;;;10.97;29.16;96297.66;5078997;28;20208;-75
2024/01/31 11:20:46;;;;;;;26.30;23.60;;;;;;;11.06;29.61;96290.16;5097418;28;20181;-75